Time,TemperatureF,DewpointF,PressureIn,WindDirection,WindDirectionDegrees,WindSpeedMPH,WindSpeedGustMPH,Humidity,HourlyPrecipIn,Conditions,Clouds,dailyrainin,SoftwareType,DateUTC
2013-05-10 00:02:00,44.4,31.4,30.03,NE,45,10.9,-999.0,60,-99.99,,,0.00,Acu-Link.com,2013-05-10 05:02:00,
2013-05-10 00:17:00,43.7,31.1,30.03,NNE,22,10.9,-999.0,61,-99.99,,,0.00,Acu-Link.com,2013-05-10 05:17:00,
2013-05-10 00:32:00,42.6,31.3,30.04,North,0,9.9,-999.0,64,-99.99,,,0.00,Acu-Link.com,2013-05-10 05:32:00,
2013-05-10 00:47:00,42.4,30.3,30.04,NE,45,12.5,-999.0,62,-99.99,,,0.00,Acu-Link.com,2013-05-10 05:47:00,
2013-05-10 01:02:00,42.1,30.0,30.04,NE,45,14.5,-999.0,62,-99.99,,,0.00,Acu-Link.com,2013-05-10 06:02:00,
2013-05-10 01:17:00,41.5,29.9,30.04,NNE,22,7.8,-999.0,63,-99.99,,,0.00,Acu-Link.com,2013-05-10 06:17:00,
2013-05-10 01:32:00,41.4,30.1,30.04,NNE,22,11.4,-999.0,64,-99.99,,,0.00,Acu-Link.com,2013-05-10 06:32:00,
2013-05-10 01:47:00,40.8,30.3,30.03,NNE,22,7.3,-999.0,66,-99.99,,,0.00,Acu-Link.com,2013-05-10 06:47:00,
2013-05-10 02:02:00,40.8,29.6,30.03,NE,45,11.4,-999.0,64,-99.99,,,0.00,Acu-Link.com,2013-05-10 07:02:00,
2013-05-10 02:17:00,40.6,30.5,30.02,NNE,22,7.8,-999.0,67,-99.99,,,0.00,Acu-Link.com,2013-05-10 07:17:00,
2013-05-10 02:32:00,40.5,29.7,30.02,NNE,22,9.9,-999.0,65,-99.99,,,0.00,Acu-Link.com,2013-05-10 07:32:00,
2013-05-10 02:48:00,39.9,30.2,30.02,NNE,22,7.8,-999.0,68,-99.99,,,0.00,Acu-Link.com,2013-05-10 07:48:00,
2013-05-10 03:03:00,39.9,30.2,30.02,NNE,22,11.4,-999.0,68,-99.99,,,0.00,Acu-Link.com,2013-05-10 08:03:00,
2013-05-10 03:18:00,39.6,30.3,30.02,NE,45,9.4,-999.0,69,-99.99,,,0.00,Acu-Link.com,2013-05-10 08:18:00,
2013-05-10 03:34:00,39.6,30.6,30.02,North,0,9.4,-999.0,70,-99.99,,,0.00,Acu-Link.com,2013-05-10 08:34:00,
2013-05-10 03:49:00,39.0,30.1,30.01,NE,45,8.9,-999.0,70,-99.99,,,0.00,Acu-Link.com,2013-05-10 08:49:00,
2013-05-10 04:05:00,38.8,30.2,30.01,NE,45,10.9,-999.0,71,-99.99,,,0.00,Acu-Link.com,2013-05-10 09:05:00,
2013-05-10 04:20:00,37.9,29.7,30.01,NNE,22,9.4,-999.0,72,-99.99,,,0.00,Acu-Link.com,2013-05-10 09:20:00,
2013-05-10 04:35:00,37.2,29.7,30.02,North,0,8.3,-999.0,74,-99.99,,,0.00,Acu-Link.com,2013-05-10 09:35:00,
2013-05-10 04:50:00,36.7,29.5,30.02,NNE,22,8.9,-999.0,75,-99.99,,,0.00,Acu-Link.com,2013-05-10 09:50:00,
2013-05-10 05:05:00,36.3,29.5,30.01,NNE,22,10.4,-999.0,76,-99.99,,,0.00,Acu-Link.com,2013-05-10 10:05:00,
2013-05-10 05:20:00,36.1,29.3,30.01,NNE,22,8.9,-999.0,76,-99.99,,,0.00,Acu-Link.com,2013-05-10 10:20:00,
2013-05-10 05:35:00,35.8,29.3,30.01,NNE,22,9.9,-999.0,77,-99.99,,,0.00,Acu-Link.com,2013-05-10 10:35:00,
2013-05-10 05:50:00,35.6,29.1,30.02,NNE,22,7.8,-999.0,77,-99.99,,,0.00,Acu-Link.com,2013-05-10 10:50:00,
2013-05-10 06:05:00,35.2,29.0,30.02,NNE,22,5.3,-999.0,78,-99.99,,,0.00,Acu-Link.com,2013-05-10 11:05:00,
2013-05-10 06:20:00,36.3,29.5,30.02,NNE,22,6.8,-999.0,76,-99.99,,,0.00,Acu-Link.com,2013-05-10 11:20:00,
2013-05-10 06:35:00,37.2,30.0,30.03,NNE,22,7.3,-999.0,75,-99.99,,,0.00,Acu-Link.com,2013-05-10 11:35:00,
2013-05-10 06:50:00,37.4,29.9,30.02,NNE,22,8.9,-999.0,74,-99.99,,,0.00,Acu-Link.com,2013-05-10 11:50:00,
2013-05-10 07:05:00,38.8,30.9,30.02,NNE,22,8.3,-999.0,73,-99.99,,,0.00,Acu-Link.com,2013-05-10 12:05:00,
2013-05-10 07:20:00,39.0,30.8,30.02,NNE,22,11.9,-999.0,72,-99.99,,,0.00,Acu-Link.com,2013-05-10 12:20:00,
2013-05-10 07:36:00,40.1,31.5,30.02,NNE,22,9.9,-999.0,71,-99.99,,,0.00,Acu-Link.com,2013-05-10 12:36:00,
2013-05-10 07:51:00,41.4,31.6,30.02,NE,45,10.4,-999.0,68,-99.99,,,0.00,Acu-Link.com,2013-05-10 12:51:00,
2013-05-10 15:17:00,-999.0,-99.9,-100.00,North,-999,-999.0,-999.0,-999,-99.99,,,-99.99,Acu-Link.com,2013-05-10 20:17:00,
2013-05-10 15:23:00,-999.0,-99.9,-100.00,North,-999,-999.0,-999.0,-999,-99.99,,,-99.99,Acu-Link.com,2013-05-10 20:23:00,
2013-05-10 15:39:00,65.1,25.3,29.87,WSW,247,2.7,-999.0,22,-99.99,,,0.00,Acu-Link.com,2013-05-10 20:39:00,
2013-05-10 15:54:00,65.5,23.4,29.86,SE,135,3.7,-999.0,20,-99.99,,,0.00,Acu-Link.com,2013-05-10 20:54:00,
2013-05-10 16:09:00,65.8,22.4,29.86,SSE,157,3.7,-999.0,19,-99.99,,,0.00,Acu-Link.com,2013-05-10 21:09:00,
2013-05-10 16:25:00,66.2,24.0,29.85,WSW,247,2.2,-999.0,20,-99.99,,,0.00,Acu-Link.com,2013-05-10 21:25:00,
2013-05-10 16:40:00,66.9,24.5,29.84,NE,45,3.7,-999.0,20,-99.99,,,0.00,Acu-Link.com,2013-05-10 21:40:00,
2013-05-10 16:55:00,67.1,23.5,29.84,ESE,112,2.2,-999.0,19,-99.99,,,0.00,Acu-Link.com,2013-05-10 21:55:00,
2013-05-10 17:11:00,66.7,25.5,29.83,SSW,202,5.3,-999.0,21,-99.99,,,0.00,Acu-Link.com,2013-05-10 22:11:00,
2013-05-10 17:26:00,66.6,25.5,29.83,SW,225,6.8,-999.0,21,-99.99,,,0.00,Acu-Link.com,2013-05-10 22:26:00,
2013-05-10 17:41:00,67.3,28.2,29.83,NNW,337,6.8,-999.0,23,-99.99,,,0.00,Acu-Link.com,2013-05-10 22:41:00,
2013-05-10 17:56:00,66.9,25.7,29.82,WSW,247,2.7,-999.0,21,-99.99,,,0.00,Acu-Link.com,2013-05-10 22:56:00,
2013-05-10 18:11:00,68.2,21.7,29.82,WNW,292,2.2,-999.0,17,-99.99,,,0.00,Acu-Link.com,2013-05-10 23:11:00,
2013-05-10 18:26:00,68.4,23.2,29.81,West,270,5.3,-999.0,18,-99.99,,,0.00,Acu-Link.com,2013-05-10 23:26:00,
2013-05-10 18:41:00,68.2,24.4,29.80,NW,315,1.7,-999.0,19,-99.99,,,0.00,Acu-Link.com,2013-05-10 23:41:00,
2013-05-10 18:56:00,68.4,25.8,29.79,West,270,5.8,-999.0,20,-99.99,,,0.00,Acu-Link.com,2013-05-10 23:56:00,
2013-05-10 19:11:00,68.0,25.4,29.80,NW,315,2.2,-999.0,20,-99.99,,,0.00,Acu-Link.com,2013-05-11 00:11:00,
2013-05-10 19:27:00,67.6,26.3,29.80,WNW,292,2.2,-999.0,21,-99.99,,,0.00,Acu-Link.com,2013-05-11 00:27:00,
2013-05-10 19:42:00,64.6,27.0,29.79,West,270,2.7,-999.0,24,-99.99,,,0.00,Acu-Link.com,2013-05-11 00:42:00,
2013-05-10 19:57:00,64.2,28.6,29.79,NNW,337,2.7,-999.0,26,-99.99,,,0.00,Acu-Link.com,2013-05-11 00:57:00,
2013-05-10 20:12:00,62.8,28.3,29.78,South,180,0.0,-999.0,27,-99.99,,,0.00,Acu-Link.com,2013-05-11 01:12:00,
2013-05-10 20:28:00,61.2,29.5,29.79,SSW,202,0.0,-999.0,30,-99.99,,,0.00,Acu-Link.com,2013-05-11 01:28:00,
2013-05-10 20:43:00,60.1,32.4,29.78,SSW,202,2.7,-999.0,35,-99.99,,,0.00,Acu-Link.com,2013-05-11 01:43:00,
2013-05-10 20:58:00,59.5,32.5,29.78,SW,225,1.7,-999.0,36,-99.99,,,0.00,Acu-Link.com,2013-05-11 01:58:00,
2013-05-10 21:14:00,59.2,33.6,29.78,SSE,157,2.7,-999.0,38,-99.99,,,0.00,Acu-Link.com,2013-05-11 02:14:00,
2013-05-10 21:29:00,57.9,35.0,29.78,South,180,2.7,-999.0,42,-99.99,,,0.00,Acu-Link.com,2013-05-11 02:29:00,
2013-05-10 21:44:00,57.7,35.9,29.79,SSE,157,1.7,-999.0,44,-99.99,,,0.00,Acu-Link.com,2013-05-11 02:44:00,
2013-05-10 22:00:00,57.9,36.1,29.78,SSE,157,2.7,-999.0,44,-99.99,,,0.00,Acu-Link.com,2013-05-11 03:00:00,
2013-05-10 22:15:00,56.7,40.2,29.78,SW,225,2.7,-999.0,54,-99.99,,,0.00,Acu-Link.com,2013-05-11 03:15:00,
2013-05-10 22:30:00,55.8,39.4,29.77,South,180,2.2,-999.0,54,-99.99,,,0.00,Acu-Link.com,2013-05-11 03:30:00,
2013-05-10 22:45:00,56.1,40.6,29.77,SSW,202,2.2,-999.0,56,-99.99,,,0.00,Acu-Link.com,2013-05-11 03:45:00,
2013-05-10 23:00:00,55.2,39.8,29.77,SSE,157,1.7,-999.0,56,-99.99,,,0.00,Acu-Link.com,2013-05-11 04:00:00,
2013-05-10 23:16:00,55.4,40.0,29.77,South,180,1.7,-999.0,56,-99.99,,,0.00,Acu-Link.com,2013-05-11 04:16:00,
2013-05-10 23:31:00,56.3,39.4,29.77,SW,225,2.2,-999.0,53,-99.99,,,0.00,Acu-Link.com,2013-05-11 04:31:00,
2013-05-10 23:46:00,55.6,37.8,29.77,West,270,3.2,-999.0,51,-99.99,,,0.00,Acu-Link.com,2013-05-11 04:46:00,